sensor_id;sensor_type;location;lat;lon;timestamp;P1;durP1;ratioP1;P2;durP2;ratioP2
34960;SDS011;30789;52.030;7.110;2022-12-10T00:00:02;45.35;;;22.42;;
34960;SDS011;30789;52.030;7.110;2022-12-10T00:02:29;51.15;;;22.10;;
34960;SDS011;30789;52.030;7.110;2022-12-10T00:04:55;55.60;;;24.10;;
34960;SDS011;30789;52.030;7.110;2022-12-10T00:07:23;45.58;;;21.92;;
34960;SDS011;30789;52.030;7.110;2022-12-10T00:09:50;50.72;;;23.17;;
34960;SDS011;30789;52.030;7.110;2022-12-10T00:12:16;52.72;;;22.90;;
34960;SDS011;30789;52.030;7.110;2022-12-10T00:14:42;46.15;;;22.85;;
34960;SDS011;30789;52.030;7.110;2022-12-10T00:17:09;52.10;;;23.85;;
34960;SDS011;30789;52.030;7.110;2022-12-10T00:19:35;47.20;;;22.70;;
34960;SDS011;30789;52.030;7.110;2022-12-10T00:22:02;52.03;;;23.15;;
34960;SDS011;30789;52.030;7.110;2022-12-10T00:24:30;51.03;;;23.00;;
34960;SDS011;30789;52.030;7.110;2022-12-10T00:26:56;45.33;;;20.77;;
34960;SDS011;30789;52.030;7.110;2022-12-10T00:29:22;42.50;;;19.55;;
34960;SDS011;30789;52.030;7.110;2022-12-10T00:31:49;43.13;;;21.02;;
34960;SDS011;30789;52.030;7.110;2022-12-10T00:34:15;47.08;;;21.42;;
34960;SDS011;30789;52.030;7.110;2022-12-10T00:36:43;45.67;;;22.00;;
34960;SDS011;30789;52.030;7.110;2022-12-10T00:39:11;43.38;;;20.73;;
34960;SDS011;30789;52.030;7.110;2022-12-10T00:41:40;42.88;;;20.02;;
34960;SDS011;30789;52.030;7.110;2022-12-10T00:44:06;50.10;;;22.63;;
34960;SDS011;30789;52.030;7.110;2022-12-10T00:46:33;44.63;;;21.00;;
34960;SDS011;30789;52.030;7.110;2022-12-10T00:48:59;41.65;;;21.23;;
34960;SDS011;30789;52.030;7.110;2022-12-10T00:51:26;39.33;;;19.13;;
34960;SDS011;30789;52.030;7.110;2022-12-10T00:53:54;45.08;;;20.70;;
34960;SDS011;30789;52.030;7.110;2022-12-10T00:56:23;40.70;;;19.67;;
34960;SDS011;30789;52.030;7.110;2022-12-10T00:58:52;41.95;;;20.70;;
34960;SDS011;30789;52.030;7.110;2022-12-10T01:01:20;45.72;;;21.33;;
34960;SDS011;30789;52.030;7.110;2022-12-10T01:03:50;37.73;;;19.10;;
34960;SDS011;30789;52.030;7.110;2022-12-10T01:06:18;43.22;;;19.08;;
34960;SDS011;30789;52.030;7.110;2022-12-10T01:08:47;41.92;;;21.65;;
34960;SDS011;30789;52.030;7.110;2022-12-10T01:11:15;38.55;;;18.55;;
34960;SDS011;30789;52.030;7.110;2022-12-10T01:13:43;44.28;;;19.63;;
34960;SDS011;30789;52.030;7.110;2022-12-10T01:16:13;36.00;;;18.98;;
34960;SDS011;30789;52.030;7.110;2022-12-10T01:18:41;37.92;;;19.50;;
34960;SDS011;30789;52.030;7.110;2022-12-10T01:21:09;44.30;;;21.23;;
34960;SDS011;30789;52.030;7.110;2022-12-10T01:23:38;38.33;;;19.13;;
34960;SDS011;30789;52.030;7.110;2022-12-10T01:28:40;43.58;;;21.63;;
34960;SDS011;30789;52.030;7.110;2022-12-10T01:31:08;43.30;;;22.88;;
34960;SDS011;30789;52.030;7.110;2022-12-10T01:33:37;43.45;;;21.83;;
34960;SDS011;30789;52.030;7.110;2022-12-10T01:36:05;49.10;;;22.05;;
34960;SDS011;30789;52.030;7.110;2022-12-10T01:38:33;45.75;;;20.85;;
34960;SDS011;30789;52.030;7.110;2022-12-10T01:41:00;45.15;;;22.52;;
34960;SDS011;30789;52.030;7.110;2022-12-10T01:43:26;39.13;;;21.08;;
34960;SDS011;30789;52.030;7.110;2022-12-10T01:45:53;45.40;;;21.48;;
34960;SDS011;30789;52.030;7.110;2022-12-10T01:48:20;41.53;;;19.73;;
34960;SDS011;30789;52.030;7.110;2022-12-10T01:50:48;41.00;;;20.05;;
34960;SDS011;30789;52.030;7.110;2022-12-10T01:53:14;40.17;;;20.50;;
34960;SDS011;30789;52.030;7.110;2022-12-10T01:55:43;38.97;;;18.25;;
34960;SDS011;30789;52.030;7.110;2022-12-10T01:58:13;42.22;;;20.85;;
34960;SDS011;30789;52.030;7.110;2022-12-10T02:00:43;40.47;;;20.00;;
34960;SDS011;30789;52.030;7.110;2022-12-10T02:03:19;38.72;;;19.52;;
34960;SDS011;30789;52.030;7.110;2022-12-10T02:05:54;44.92;;;21.20;;
34960;SDS011;30789;52.030;7.110;2022-12-10T02:08:27;46.58;;;22.52;;
34960;SDS011;30789;52.030;7.110;2022-12-10T02:11:05;41.70;;;21.05;;
34960;SDS011;30789;52.030;7.110;2022-12-10T02:13:39;39.45;;;19.88;;
34960;SDS011;30789;52.030;7.110;2022-12-10T02:16:08;40.40;;;20.98;;
34960;SDS011;30789;52.030;7.110;2022-12-10T02:18:39;41.58;;;19.80;;
34960;SDS011;30789;52.030;7.110;2022-12-10T02:21:14;39.17;;;19.05;;
34960;SDS011;30789;52.030;7.110;2022-12-10T02:23:49;35.85;;;18.55;;
34960;SDS011;30789;52.030;7.110;2022-12-10T02:26:20;38.10;;;19.90;;
34960;SDS011;30789;52.030;7.110;2022-12-10T02:28:51;43.05;;;20.42;;
34960;SDS011;30789;52.030;7.110;2022-12-10T02:31:23;35.22;;;17.20;;
34960;SDS011;30789;52.030;7.110;2022-12-10T02:33:53;37.88;;;18.92;;
34960;SDS011;30789;52.030;7.110;2022-12-10T02:36:23;41.37;;;18.53;;
34960;SDS011;30789;52.030;7.110;2022-12-10T02:38:53;38.45;;;19.17;;
34960;SDS011;30789;52.030;7.110;2022-12-10T02:41:23;38.92;;;18.23;;
34960;SDS011;30789;52.030;7.110;2022-12-10T02:43:53;36.88;;;18.05;;
34960;SDS011;30789;52.030;7.110;2022-12-10T02:46:23;36.20;;;17.48;;
34960;SDS011;30789;52.030;7.110;2022-12-10T02:48:54;33.65;;;17.30;;
34960;SDS011;30789;52.030;7.110;2022-12-10T02:51:23;35.33;;;17.13;;
34960;SDS011;30789;52.030;7.110;2022-12-10T02:53:58;39.15;;;18.50;;
34960;SDS011;30789;52.030;7.110;2022-12-10T02:56:26;34.33;;;17.05;;
34960;SDS011;30789;52.030;7.110;2022-12-10T02:59:03;42.30;;;17.45;;
34960;SDS011;30789;52.030;7.110;2022-12-10T03:01:37;38.30;;;17.20;;
34960;SDS011;30789;52.030;7.110;2022-12-10T03:04:11;35.10;;;16.70;;
34960;SDS011;30789;52.030;7.110;2022-12-10T03:06:42;40.03;;;18.27;;
34960;SDS011;30789;52.030;7.110;2022-12-10T03:09:17;36.80;;;17.40;;
34960;SDS011;30789;52.030;7.110;2022-12-10T03:11:48;34.42;;;18.40;;
34960;SDS011;30789;52.030;7.110;2022-12-10T03:14:18;32.72;;;16.60;;
34960;SDS011;30789;52.030;7.110;2022-12-10T03:16:51;32.30;;;16.30;;
34960;SDS011;30789;52.030;7.110;2022-12-10T03:19:21;32.13;;;16.50;;
34960;SDS011;30789;52.030;7.110;2022-12-10T03:21:51;37.00;;;15.93;;
34960;SDS011;30789;52.030;7.110;2022-12-10T03:24:20;40.28;;;18.63;;
34960;SDS011;30789;52.030;7.110;2022-12-10T03:26:48;37.30;;;18.25;;
34960;SDS011;30789;52.030;7.110;2022-12-10T03:29:17;43.90;;;17.75;;
34960;SDS011;30789;52.030;7.110;2022-12-10T03:31:47;38.63;;;18.00;;
34960;SDS011;30789;52.030;7.110;2022-12-10T03:34:17;38.33;;;18.00;;
34960;SDS011;30789;52.030;7.110;2022-12-10T03:36:44;35.65;;;17.58;;
34960;SDS011;30789;52.030;7.110;2022-12-10T03:39:11;35.25;;;18.40;;
34960;SDS011;30789;52.030;7.110;2022-12-10T03:41:38;34.55;;;16.95;;
34960;SDS011;30789;52.030;7.110;2022-12-10T03:44:05;43.17;;;17.48;;
34960;SDS011;30789;52.030;7.110;2022-12-10T03:46:31;32.97;;;16.20;;
34960;SDS011;30789;52.030;7.110;2022-12-10T03:49:00;34.05;;;17.13;;
34960;SDS011;30789;52.030;7.110;2022-12-10T03:51:27;37.90;;;16.90;;
34960;SDS011;30789;52.030;7.110;2022-12-10T03:53:54;39.65;;;18.27;;
34960;SDS011;30789;52.030;7.110;2022-12-10T03:56:20;40.60;;;17.50;;
34960;SDS011;30789;52.030;7.110;2022-12-10T03:58:47;39.85;;;17.42;;
34960;SDS011;30789;52.030;7.110;2022-12-10T04:01:14;33.42;;;16.63;;
34960;SDS011;30789;52.030;7.110;2022-12-10T04:03:41;43.17;;;17.95;;
34960;SDS011;30789;52.030;7.110;2022-12-10T04:06:12;38.00;;;17.92;;
34960;SDS011;30789;52.030;7.110;2022-12-10T04:08:39;37.65;;;17.20;;
34960;SDS011;30789;52.030;7.110;2022-12-10T04:11:07;35.30;;;18.08;;
34960;SDS011;30789;52.030;7.110;2022-12-10T04:13:36;38.08;;;18.02;;
34960;SDS011;30789;52.030;7.110;2022-12-10T04:16:21;33.03;;;16.25;;
34960;SDS011;30789;52.030;7.110;2022-12-10T04:18:54;33.95;;;16.98;;
34960;SDS011;30789;52.030;7.110;2022-12-10T04:21:24;35.78;;;18.00;;
34960;SDS011;30789;52.030;7.110;2022-12-10T04:24:09;35.85;;;17.98;;
34960;SDS011;30789;52.030;7.110;2022-12-10T04:26:54;35.00;;;16.70;;
34960;SDS011;30789;52.030;7.110;2022-12-10T04:29:22;37.92;;;18.75;;
34960;SDS011;30789;52.030;7.110;2022-12-10T04:31:50;41.45;;;17.42;;
34960;SDS011;30789;52.030;7.110;2022-12-10T04:34:17;37.85;;;18.48;;
34960;SDS011;30789;52.030;7.110;2022-12-10T04:36:45;40.53;;;18.27;;
34960;SDS011;30789;52.030;7.110;2022-12-10T04:39:12;38.45;;;18.33;;
34960;SDS011;30789;52.030;7.110;2022-12-10T04:41:39;39.05;;;17.60;;
34960;SDS011;30789;52.030;7.110;2022-12-10T04:44:06;42.05;;;16.75;;
34960;SDS011;30789;52.030;7.110;2022-12-10T04:46:33;41.20;;;17.85;;
34960;SDS011;30789;52.030;7.110;2022-12-10T04:49:00;35.17;;;16.58;;
34960;SDS011;30789;52.030;7.110;2022-12-10T04:51:27;33.90;;;17.67;;
34960;SDS011;30789;52.030;7.110;2022-12-10T04:53:54;31.25;;;15.15;;
34960;SDS011;30789;52.030;7.110;2022-12-10T04:56:21;34.58;;;17.48;;
34960;SDS011;30789;52.030;7.110;2022-12-10T04:58:48;37.17;;;17.85;;
34960;SDS011;30789;52.030;7.110;2022-12-10T05:01:15;36.63;;;18.20;;
34960;SDS011;30789;52.030;7.110;2022-12-10T05:03:43;32.72;;;16.40;;
34960;SDS011;30789;52.030;7.110;2022-12-10T05:06:10;39.28;;;17.35;;
34960;SDS011;30789;52.030;7.110;2022-12-10T05:08:38;33.88;;;16.85;;
34960;SDS011;30789;52.030;7.110;2022-12-10T05:11:08;40.25;;;19.35;;
34960;SDS011;30789;52.030;7.110;2022-12-10T05:13:37;33.92;;;16.55;;
34960;SDS011;30789;52.030;7.110;2022-12-10T05:16:05;37.45;;;18.70;;
34960;SDS011;30789;52.030;7.110;2022-12-10T05:18:33;36.92;;;18.25;;
34960;SDS011;30789;52.030;7.110;2022-12-10T05:21:00;36.20;;;17.42;;
34960;SDS011;30789;52.030;7.110;2022-12-10T05:23:28;37.88;;;18.50;;
34960;SDS011;30789;52.030;7.110;2022-12-10T05:26:00;36.72;;;18.45;;
34960;SDS011;30789;52.030;7.110;2022-12-10T05:28:29;34.08;;;16.95;;
34960;SDS011;30789;52.030;7.110;2022-12-10T05:30:57;38.47;;;17.65;;
34960;SDS011;30789;52.030;7.110;2022-12-10T05:33:24;36.72;;;17.52;;
34960;SDS011;30789;52.030;7.110;2022-12-10T05:35:52;32.97;;;17.02;;
34960;SDS011;30789;52.030;7.110;2022-12-10T05:38:22;36.95;;;18.40;;
34960;SDS011;30789;52.030;7.110;2022-12-10T05:40:48;34.83;;;17.25;;
34960;SDS011;30789;52.030;7.110;2022-12-10T05:43:16;37.28;;;17.00;;
34960;SDS011;30789;52.030;7.110;2022-12-10T05:45:44;33.67;;;16.95;;
34960;SDS011;30789;52.030;7.110;2022-12-10T05:48:11;39.40;;;17.88;;
34960;SDS011;30789;52.030;7.110;2022-12-10T05:50:39;33.13;;;18.40;;
34960;SDS011;30789;52.030;7.110;2022-12-10T05:53:06;33.95;;;18.05;;
34960;SDS011;30789;52.030;7.110;2022-12-10T05:55:33;41.22;;;20.17;;
34960;SDS011;30789;52.030;7.110;2022-12-10T05:58:00;41.13;;;16.80;;
34960;SDS011;30789;52.030;7.110;2022-12-10T06:00:26;36.03;;;19.20;;
34960;SDS011;30789;52.030;7.110;2022-12-10T06:02:55;31.30;;;16.58;;
34960;SDS011;30789;52.030;7.110;2022-12-10T06:05:21;34.60;;;16.75;;
34960;SDS011;30789;52.030;7.110;2022-12-10T06:07:48;37.55;;;17.90;;
34960;SDS011;30789;52.030;7.110;2022-12-10T06:10:14;38.03;;;18.00;;
34960;SDS011;30789;52.030;7.110;2022-12-10T06:12:41;34.03;;;17.23;;
34960;SDS011;30789;52.030;7.110;2022-12-10T06:15:08;32.53;;;16.75;;
34960;SDS011;30789;52.030;7.110;2022-12-10T06:17:35;33.53;;;17.25;;
34960;SDS011;30789;52.030;7.110;2022-12-10T06:20:03;37.78;;;18.80;;
34960;SDS011;30789;52.030;7.110;2022-12-10T06:22:31;32.03;;;16.55;;
34960;SDS011;30789;52.030;7.110;2022-12-10T06:24:57;35.47;;;17.58;;
34960;SDS011;30789;52.030;7.110;2022-12-10T06:27:23;33.80;;;18.42;;
34960;SDS011;30789;52.030;7.110;2022-12-10T06:29:50;33.03;;;16.30;;
34960;SDS011;30789;52.030;7.110;2022-12-10T06:32:16;30.60;;;16.75;;
34960;SDS011;30789;52.030;7.110;2022-12-10T06:34:43;36.67;;;18.50;;
34960;SDS011;30789;52.030;7.110;2022-12-10T06:37:11;38.30;;;17.95;;
34960;SDS011;30789;52.030;7.110;2022-12-10T06:39:37;33.30;;;18.83;;
34960;SDS011;30789;52.030;7.110;2022-12-10T06:42:04;37.22;;;18.63;;
34960;SDS011;30789;52.030;7.110;2022-12-10T06:44:31;32.55;;;17.88;;
34960;SDS011;30789;52.030;7.110;2022-12-10T06:46:58;33.40;;;17.65;;
34960;SDS011;30789;52.030;7.110;2022-12-10T06:49:24;31.05;;;17.77;;
34960;SDS011;30789;52.030;7.110;2022-12-10T06:51:50;36.92;;;18.85;;
34960;SDS011;30789;52.030;7.110;2022-12-10T06:54:18;35.92;;;18.58;;
34960;SDS011;30789;52.030;7.110;2022-12-10T06:56:45;37.53;;;18.75;;
34960;SDS011;30789;52.030;7.110;2022-12-10T06:59:11;34.25;;;18.25;;
34960;SDS011;30789;52.030;7.110;2022-12-10T07:01:38;33.88;;;16.67;;
34960;SDS011;30789;52.030;7.110;2022-12-10T07:04:04;31.83;;;15.85;;
34960;SDS011;30789;52.030;7.110;2022-12-10T07:06:31;33.85;;;17.63;;
34960;SDS011;30789;52.030;7.110;2022-12-10T07:08:58;36.30;;;18.08;;
34960;SDS011;30789;52.030;7.110;2022-12-10T07:11:26;29.02;;;15.52;;
34960;SDS011;30789;52.030;7.110;2022-12-10T07:13:52;36.22;;;15.05;;
34960;SDS011;30789;52.030;7.110;2022-12-10T07:16:20;34.40;;;17.40;;
34960;SDS011;30789;52.030;7.110;2022-12-10T07:18:48;38.15;;;18.48;;
34960;SDS011;30789;52.030;7.110;2022-12-10T07:21:16;40.60;;;17.40;;
34960;SDS011;30789;52.030;7.110;2022-12-10T07:23:43;34.53;;;16.75;;
34960;SDS011;30789;52.030;7.110;2022-12-10T07:26:10;32.60;;;16.60;;
34960;SDS011;30789;52.030;7.110;2022-12-10T07:28:38;33.17;;;17.25;;
34960;SDS011;30789;52.030;7.110;2022-12-10T07:31:06;33.33;;;17.52;;
34960;SDS011;30789;52.030;7.110;2022-12-10T07:33:33;32.25;;;18.33;;
34960;SDS011;30789;52.030;7.110;2022-12-10T07:36:02;37.80;;;18.55;;
34960;SDS011;30789;52.030;7.110;2022-12-10T07:38:29;39.92;;;18.15;;
34960;SDS011;30789;52.030;7.110;2022-12-10T07:40:56;34.22;;;18.77;;
34960;SDS011;30789;52.030;7.110;2022-12-10T07:43:22;35.15;;;17.90;;
34960;SDS011;30789;52.030;7.110;2022-12-10T07:45:50;33.30;;;16.80;;
34960;SDS011;30789;52.030;7.110;2022-12-10T07:48:16;31.50;;;17.25;;
34960;SDS011;30789;52.030;7.110;2022-12-10T07:50:43;31.42;;;17.30;;
34960;SDS011;30789;52.030;7.110;2022-12-10T07:53:09;33.58;;;18.63;;
34960;SDS011;30789;52.030;7.110;2022-12-10T07:55:36;40.35;;;18.95;;
34960;SDS011;30789;52.030;7.110;2022-12-10T07:58:03;38.75;;;18.13;;
34960;SDS011;30789;52.030;7.110;2022-12-10T08:00:29;34.40;;;18.80;;
34960;SDS011;30789;52.030;7.110;2022-12-10T08:02:57;36.00;;;17.48;;
34960;SDS011;30789;52.030;7.110;2022-12-10T08:05:24;36.90;;;17.90;;
34960;SDS011;30789;52.030;7.110;2022-12-10T08:07:50;33.20;;;18.40;;
34960;SDS011;30789;52.030;7.110;2022-12-10T08:10:16;34.97;;;18.75;;
34960;SDS011;30789;52.030;7.110;2022-12-10T08:12:44;39.35;;;20.65;;
34960;SDS011;30789;52.030;7.110;2022-12-10T08:15:10;69.32;;;32.35;;
34960;SDS011;30789;52.030;7.110;2022-12-10T08:17:36;116.45;;;49.10;;
34960;SDS011;30789;52.030;7.110;2022-12-10T08:20:05;132.18;;;58.10;;
34960;SDS011;30789;52.030;7.110;2022-12-10T08:22:32;44.78;;;22.25;;
34960;SDS011;30789;52.030;7.110;2022-12-10T08:25:00;37.45;;;19.88;;
34960;SDS011;30789;52.030;7.110;2022-12-10T08:27:26;38.00;;;21.63;;
34960;SDS011;30789;52.030;7.110;2022-12-10T08:29:53;42.33;;;20.55;;
34960;SDS011;30789;52.030;7.110;2022-12-10T08:32:19;34.42;;;17.90;;
34960;SDS011;30789;52.030;7.110;2022-12-10T08:34:46;38.35;;;19.30;;
34960;SDS011;30789;52.030;7.110;2022-12-10T08:37:14;38.65;;;20.63;;
34960;SDS011;30789;52.030;7.110;2022-12-10T08:39:42;37.85;;;18.15;;
34960;SDS011;30789;52.030;7.110;2022-12-10T10:06:43;67.32;;;27.13;;
34960;SDS011;30789;52.030;7.110;2022-12-10T10:09:10;70.38;;;29.02;;
34960;SDS011;30789;52.030;7.110;2022-12-10T10:11:40;77.10;;;29.27;;
34960;SDS011;30789;52.030;7.110;2022-12-10T10:14:09;70.35;;;29.75;;
34960;SDS011;30789;52.030;7.110;2022-12-10T10:16:40;63.08;;;28.35;;
34960;SDS011;30789;52.030;7.110;2022-12-10T10:19:11;70.80;;;28.75;;
34960;SDS011;30789;52.030;7.110;2022-12-10T10:21:41;69.57;;;28.20;;
34960;SDS011;30789;52.030;7.110;2022-12-10T10:24:12;74.28;;;30.83;;
34960;SDS011;30789;52.030;7.110;2022-12-10T10:26:41;73.85;;;28.27;;
34960;SDS011;30789;52.030;7.110;2022-12-10T10:29:08;76.75;;;31.10;;
34960;SDS011;30789;52.030;7.110;2022-12-10T10:31:38;74.80;;;29.63;;
34960;SDS011;30789;52.030;7.110;2022-12-10T10:34:12;82.22;;;31.23;;
34960;SDS011;30789;52.030;7.110;2022-12-10T10:36:41;83.30;;;31.35;;
34960;SDS011;30789;52.030;7.110;2022-12-10T10:39:08;74.45;;;28.88;;
34960;SDS011;30789;52.030;7.110;2022-12-10T10:41:37;92.68;;;34.55;;
34960;SDS011;30789;52.030;7.110;2022-12-10T10:44:11;82.07;;;34.95;;
34960;SDS011;30789;52.030;7.110;2022-12-10T10:46:41;90.78;;;31.90;;
34960;SDS011;30789;52.030;7.110;2022-12-10T10:49:18;82.70;;;30.45;;
34960;SDS011;30789;52.030;7.110;2022-12-10T10:52:00;79.07;;;30.85;;
34960;SDS011;30789;52.030;7.110;2022-12-10T10:54:33;80.20;;;30.48;;
34960;SDS011;30789;52.030;7.110;2022-12-10T10:57:03;84.07;;;30.48;;
34960;SDS011;30789;52.030;7.110;2022-12-10T10:59:31;90.88;;;32.97;;
34960;SDS011;30789;52.030;7.110;2022-12-10T11:01:59;83.88;;;30.63;;
34960;SDS011;30789;52.030;7.110;2022-12-10T11:04:37;75.64;;;26.82;;
34960;SDS011;30789;52.030;7.110;2022-12-10T11:07:14;89.43;;;29.70;;
34960;SDS011;30789;52.030;7.110;2022-12-10T11:09:42;75.95;;;30.40;;
34960;SDS011;30789;52.030;7.110;2022-12-10T11:12:20;77.68;;;28.15;;
34960;SDS011;30789;52.030;7.110;2022-12-10T11:14:47;84.00;;;30.25;;
34960;SDS011;30789;52.030;7.110;2022-12-10T11:17:17;81.25;;;29.38;;
34960;SDS011;30789;52.030;7.110;2022-12-10T11:19:45;86.25;;;30.77;;
34960;SDS011;30789;52.030;7.110;2022-12-10T11:22:21;85.00;;;31.35;;
34960;SDS011;30789;52.030;7.110;2022-12-10T11:24:47;80.30;;;29.30;;
34960;SDS011;30789;52.030;7.110;2022-12-10T11:27:15;93.38;;;33.17;;
34960;SDS011;30789;52.030;7.110;2022-12-10T11:29:45;92.32;;;32.58;;
34960;SDS011;30789;52.030;7.110;2022-12-10T11:34:59;87.57;;;31.27;;
34960;SDS011;30789;52.030;7.110;2022-12-10T11:37:30;83.07;;;31.95;;
34960;SDS011;30789;52.030;7.110;2022-12-10T11:40:02;96.47;;;32.53;;
34960;SDS011;30789;52.030;7.110;2022-12-10T11:42:35;98.68;;;34.38;;
34960;SDS011;30789;52.030;7.110;2022-12-10T11:45:40;79.65;;;29.35;;
34960;SDS011;30789;52.030;7.110;2022-12-10T11:48:13;80.03;;;30.25;;
34960;SDS011;30789;52.030;7.110;2022-12-10T11:50:44;86.28;;;32.13;;
34960;SDS011;30789;52.030;7.110;2022-12-10T11:56:01;89.35;;;32.63;;
34960;SDS011;30789;52.030;7.110;2022-12-10T11:58:39;91.25;;;32.65;;
34960;SDS011;30789;52.030;7.110;2022-12-10T12:04:18;94.97;;;34.17;;
34960;SDS011;30789;52.030;7.110;2022-12-10T12:09:28;85.68;;;32.97;;
34960;SDS011;30789;52.030;7.110;2022-12-10T12:12:01;93.45;;;33.70;;
34960;SDS011;30789;52.030;7.110;2022-12-10T12:14:33;101.45;;;32.30;;
34960;SDS011;30789;52.030;7.110;2022-12-10T12:17:02;88.72;;;32.80;;
34960;SDS011;30789;52.030;7.110;2022-12-10T12:19:32;80.88;;;30.88;;
34960;SDS011;30789;52.030;7.110;2022-12-10T12:22:00;89.30;;;29.80;;
34960;SDS011;30789;52.030;7.110;2022-12-10T12:24:29;90.28;;;30.92;;
34960;SDS011;30789;52.030;7.110;2022-12-10T12:27:06;79.22;;;30.38;;
34960;SDS011;30789;52.030;7.110;2022-12-10T12:29:40;81.07;;;29.33;;
34960;SDS011;30789;52.030;7.110;2022-12-10T12:32:09;97.32;;;34.65;;
34960;SDS011;30789;52.030;7.110;2022-12-10T12:34:42;95.25;;;33.90;;
34960;SDS011;30789;52.030;7.110;2022-12-10T12:37:11;85.90;;;31.63;;
34960;SDS011;30789;52.030;7.110;2022-12-10T12:39:40;86.53;;;31.90;;
34960;SDS011;30789;52.030;7.110;2022-12-10T12:42:12;87.70;;;33.40;;
34960;SDS011;30789;52.030;7.110;2022-12-10T12:44:44;84.47;;;32.10;;
34960;SDS011;30789;52.030;7.110;2022-12-10T12:47:16;86.13;;;30.42;;
34960;SDS011;30789;52.030;7.110;2022-12-10T12:49:46;90.88;;;31.58;;
34960;SDS011;30789;52.030;7.110;2022-12-10T12:52:18;106.75;;;35.33;;
34960;SDS011;30789;52.030;7.110;2022-12-10T12:54:46;100.43;;;31.63;;
34960;SDS011;30789;52.030;7.110;2022-12-10T12:57:13;83.13;;;29.50;;
34960;SDS011;30789;52.030;7.110;2022-12-10T12:59:47;78.68;;;29.83;;
34960;SDS011;30789;52.030;7.110;2022-12-10T13:02:22;93.43;;;33.22;;
34960;SDS011;30789;52.030;7.110;2022-12-10T13:04:51;104.55;;;38.30;;
34960;SDS011;30789;52.030;7.110;2022-12-10T13:07:31;91.63;;;34.38;;
34960;SDS011;30789;52.030;7.110;2022-12-10T13:10:18;105.40;;;35.22;;
34960;SDS011;30789;52.030;7.110;2022-12-10T13:12:49;91.35;;;32.40;;
34960;SDS011;30789;52.030;7.110;2022-12-10T13:15:18;91.88;;;29.80;;
34960;SDS011;30789;52.030;7.110;2022-12-10T13:18:01;80.05;;;29.40;;
34960;SDS011;30789;52.030;7.110;2022-12-10T13:20:28;85.47;;;28.05;;
34960;SDS011;30789;52.030;7.110;2022-12-10T13:22:57;82.35;;;30.60;;
34960;SDS011;30789;52.030;7.110;2022-12-10T13:25:37;86.50;;;30.17;;
34960;SDS011;30789;52.030;7.110;2022-12-10T13:28:15;74.70;;;28.27;;
34960;SDS011;30789;52.030;7.110;2022-12-10T13:30:44;95.63;;;33.60;;
34960;SDS011;30789;52.030;7.110;2022-12-10T13:33:43;75.32;;;30.17;;
34960;SDS011;30789;52.030;7.110;2022-12-10T13:36:11;78.35;;;31.67;;
34960;SDS011;30789;52.030;7.110;2022-12-10T13:38:41;75.80;;;27.23;;
34960;SDS011;30789;52.030;7.110;2022-12-10T13:41:07;78.00;;;29.42;;
34960;SDS011;30789;52.030;7.110;2022-12-10T13:43:52;85.65;;;30.05;;
34960;SDS011;30789;52.030;7.110;2022-12-10T13:46:50;89.20;;;31.67;;
34960;SDS011;30789;52.030;7.110;2022-12-10T13:49:18;101.97;;;32.85;;
34960;SDS011;30789;52.030;7.110;2022-12-10T13:51:48;96.15;;;32.78;;
34960;SDS011;30789;52.030;7.110;2022-12-10T13:54:29;96.57;;;32.92;;
34960;SDS011;30789;52.030;7.110;2022-12-10T13:57:00;85.57;;;33.85;;
34960;SDS011;30789;52.030;7.110;2022-12-10T13:59:30;88.47;;;31.55;;
34960;SDS011;30789;52.030;7.110;2022-12-10T14:02:00;80.95;;;30.90;;
34960;SDS011;30789;52.030;7.110;2022-12-10T14:04:36;81.45;;;30.50;;
34960;SDS011;30789;52.030;7.110;2022-12-10T14:07:06;81.75;;;30.75;;
34960;SDS011;30789;52.030;7.110;2022-12-10T14:09:34;93.32;;;32.10;;
34960;SDS011;30789;52.030;7.110;2022-12-10T14:12:04;93.05;;;31.98;;
34960;SDS011;30789;52.030;7.110;2022-12-10T14:29:29;122.07;;;41.88;;
34960;SDS011;30789;52.030;7.110;2022-12-10T14:31:55;111.10;;;41.00;;
34960;SDS011;30789;52.030;7.110;2022-12-10T14:34:22;115.93;;;41.35;;
34960;SDS011;30789;52.030;7.110;2022-12-10T14:36:50;106.78;;;42.10;;
34960;SDS011;30789;52.030;7.110;2022-12-10T14:39:17;104.35;;;37.22;;
34960;SDS011;30789;52.030;7.110;2022-12-10T14:41:45;101.63;;;34.95;;
34960;SDS011;30789;52.030;7.110;2022-12-10T14:44:13;89.80;;;31.90;;
34960;SDS011;30789;52.030;7.110;2022-12-10T14:46:42;103.43;;;34.20;;
34960;SDS011;30789;52.030;7.110;2022-12-10T14:49:08;96.00;;;34.45;;
34960;SDS011;30789;52.030;7.110;2022-12-10T14:51:39;97.15;;;35.15;;
34960;SDS011;30789;52.030;7.110;2022-12-10T14:54:12;89.10;;;31.30;;
34960;SDS011;30789;52.030;7.110;2022-12-10T14:56:48;73.70;;;27.58;;
34960;SDS011;30789;52.030;7.110;2022-12-10T14:59:15;70.47;;;29.08;;
34960;SDS011;30789;52.030;7.110;2022-12-10T15:01:47;95.78;;;32.38;;
34960;SDS011;30789;52.030;7.110;2022-12-10T15:04:15;88.82;;;29.83;;
34960;SDS011;30789;52.030;7.110;2022-12-10T15:06:42;80.93;;;28.83;;
34960;SDS011;30789;52.030;7.110;2022-12-10T15:09:12;75.68;;;26.65;;
34960;SDS011;30789;52.030;7.110;2022-12-10T15:11:39;89.78;;;29.92;;
34960;SDS011;30789;52.030;7.110;2022-12-10T15:14:05;75.93;;;28.38;;
34960;SDS011;30789;52.030;7.110;2022-12-10T15:16:37;95.35;;;31.67;;
34960;SDS011;30789;52.030;7.110;2022-12-10T15:19:18;82.60;;;29.55;;
34960;SDS011;30789;52.030;7.110;2022-12-10T15:21:45;72.70;;;29.13;;
34960;SDS011;30789;52.030;7.110;2022-12-10T15:24:14;77.47;;;28.02;;
34960;SDS011;30789;52.030;7.110;2022-12-10T15:26:42;81.78;;;30.45;;
34960;SDS011;30789;52.030;7.110;2022-12-10T15:29:26;73.85;;;27.83;;
34960;SDS011;30789;52.030;7.110;2022-12-10T15:31:55;69.20;;;24.73;;
34960;SDS011;30789;52.030;7.110;2022-12-10T15:34:25;74.32;;;26.45;;
34960;SDS011;30789;52.030;7.110;2022-12-10T15:36:52;65.13;;;25.73;;
34960;SDS011;30789;52.030;7.110;2022-12-10T15:39:20;73.47;;;26.90;;
34960;SDS011;30789;52.030;7.110;2022-12-10T15:41:47;63.83;;;26.63;;
34960;SDS011;30789;52.030;7.110;2022-12-10T15:44:17;73.60;;;27.17;;
34960;SDS011;30789;52.030;7.110;2022-12-10T15:46:47;81.45;;;30.95;;
34960;SDS011;30789;52.030;7.110;2022-12-10T15:49:14;84.80;;;30.92;;
34960;SDS011;30789;52.030;7.110;2022-12-10T15:51:42;76.50;;;29.25;;
34960;SDS011;30789;52.030;7.110;2022-12-10T15:54:12;77.68;;;30.25;;
34960;SDS011;30789;52.030;7.110;2022-12-10T15:56:39;65.18;;;23.85;;
34960;SDS011;30789;52.030;7.110;2022-12-10T15:59:05;57.40;;;22.33;;
34960;SDS011;30789;52.030;7.110;2022-12-10T16:01:31;66.60;;;27.08;;
34960;SDS011;30789;52.030;7.110;2022-12-10T16:03:59;55.30;;;22.42;;
34960;SDS011;30789;52.030;7.110;2022-12-10T16:06:25;56.08;;;23.63;;
34960;SDS011;30789;52.030;7.110;2022-12-10T16:08:52;59.30;;;25.30;;
34960;SDS011;30789;52.030;7.110;2022-12-10T16:11:19;61.47;;;24.80;;
34960;SDS011;30789;52.030;7.110;2022-12-10T16:13:47;61.15;;;24.75;;
34960;SDS011;30789;52.030;7.110;2022-12-10T16:16:14;76.45;;;25.48;;
34960;SDS011;30789;52.030;7.110;2022-12-10T16:18:40;61.88;;;24.77;;
34960;SDS011;30789;52.030;7.110;2022-12-10T16:21:07;71.53;;;26.48;;
34960;SDS011;30789;52.030;7.110;2022-12-10T16:23:33;69.80;;;25.17;;
34960;SDS011;30789;52.030;7.110;2022-12-10T16:26:01;71.25;;;26.38;;